Terminal Aerodrome Forecast
Issued by NWS Central Illinois

Home | Current Version | Previous Version | Text Only | Print | Product List | Glossary On
Versions: 1 2 3 4 5 6 7 8 9 10 11 12 13 14 15 16 17 18 19 20 21
000
FTUS43 KILX 221746
TAFPIA
TAF
KPIA 221746Z 2218/2318 21008KT P6SM SCT250
     FM222100 26005KT P6SM VCTS FEW050CB BKN250
     FM230100 35005KT P6SM BKN120
      TEMPO 2309/2312 5SM BR=

USA.gov is the U.S. government's official web portal to all federal, state and local government web resources and services.